sensor_id;sensor_type;location;lat;lon;timestamp;P1;durP1;ratioP1;P2;durP2;ratioP2
21987;SDS011;11158;53.404;-1.510;2024-01-30T00:01:50;42.08;;;18.05;;
21987;SDS011;11158;53.404;-1.510;2024-01-30T00:04:16;38.45;;;17.30;;
21987;SDS011;11158;53.404;-1.510;2024-01-30T00:06:42;34.95;;;15.60;;
21987;SDS011;11158;53.404;-1.510;2024-01-30T00:09:08;37.10;;;15.55;;
21987;SDS011;11158;53.404;-1.510;2024-01-30T00:11:34;30.98;;;14.05;;
21987;SDS011;11158;53.404;-1.510;2024-01-30T00:13:59;32.83;;;14.27;;
21987;SDS011;11158;53.404;-1.510;2024-01-30T00:16:25;39.80;;;15.25;;
21987;SDS011;11158;53.404;-1.510;2024-01-30T00:18:51;35.13;;;15.40;;
21987;SDS011;11158;53.404;-1.510;2024-01-30T00:21:17;34.90;;;14.23;;
21987;SDS011;11158;53.404;-1.510;2024-01-30T00:23:43;33.00;;;14.40;;
21987;SDS011;11158;53.404;-1.510;2024-01-30T00:26:08;35.30;;;15.27;;
21987;SDS011;11158;53.404;-1.510;2024-01-30T00:28:34;39.30;;;16.38;;
21987;SDS011;11158;53.404;-1.510;2024-01-30T00:31:00;42.92;;;15.60;;
21987;SDS011;11158;53.404;-1.510;2024-01-30T00:33:25;39.05;;;17.60;;
21987;SDS011;11158;53.404;-1.510;2024-01-30T00:35:50;39.45;;;17.60;;
21987;SDS011;11158;53.404;-1.510;2024-01-30T00:38:16;49.75;;;19.38;;
21987;SDS011;11158;53.404;-1.510;2024-01-30T00:40:41;42.63;;;21.00;;
21987;SDS011;11158;53.404;-1.510;2024-01-30T00:43:07;40.60;;;19.45;;
21987;SDS011;11158;53.404;-1.510;2024-01-30T00:45:32;41.38;;;17.95;;
21987;SDS011;11158;53.404;-1.510;2024-01-30T00:47:58;38.70;;;18.77;;
21987;SDS011;11158;53.404;-1.510;2024-01-30T00:50:23;49.17;;;19.08;;
21987;SDS011;11158;53.404;-1.510;2024-01-30T00:52:48;35.08;;;16.15;;
21987;SDS011;11158;53.404;-1.510;2024-01-30T00:55:14;45.35;;;17.90;;
21987;SDS011;11158;53.404;-1.510;2024-01-30T00:57:39;39.35;;;15.18;;
21987;SDS011;11158;53.404;-1.510;2024-01-30T01:00:05;39.47;;;15.85;;
21987;SDS011;11158;53.404;-1.510;2024-01-30T01:02:34;39.47;;;16.67;;
21987;SDS011;11158;53.404;-1.510;2024-01-30T01:04:59;42.10;;;16.20;;
21987;SDS011;11158;53.404;-1.510;2024-01-30T01:07:25;35.95;;;16.35;;
21987;SDS011;11158;53.404;-1.510;2024-01-30T01:09:50;44.30;;;15.82;;
21987;SDS011;11158;53.404;-1.510;2024-01-30T01:12:16;35.33;;;14.35;;
21987;SDS011;11158;53.404;-1.510;2024-01-30T01:14:41;33.00;;;14.68;;
21987;SDS011;11158;53.404;-1.510;2024-01-30T01:17:07;38.30;;;15.05;;
21987;SDS011;11158;53.404;-1.510;2024-01-30T01:19:33;39.55;;;14.52;;
21987;SDS011;11158;53.404;-1.510;2024-01-30T01:21:59;43.65;;;14.25;;
21987;SDS011;11158;53.404;-1.510;2024-01-30T01:24:24;34.30;;;13.98;;
21987;SDS011;11158;53.404;-1.510;2024-01-30T01:26:50;33.15;;;13.13;;
21987;SDS011;11158;53.404;-1.510;2024-01-30T01:29:15;34.38;;;14.43;;
21987;SDS011;11158;53.404;-1.510;2024-01-30T01:31:41;33.90;;;14.25;;
21987;SDS011;11158;53.404;-1.510;2024-01-30T01:34:12;39.28;;;15.55;;
21987;SDS011;11158;53.404;-1.510;2024-01-30T01:36:38;31.17;;;13.75;;
21987;SDS011;11158;53.404;-1.510;2024-01-30T01:39:04;35.85;;;13.73;;
21987;SDS011;11158;53.404;-1.510;2024-01-30T01:41:32;39.20;;;15.10;;
21987;SDS011;11158;53.404;-1.510;2024-01-30T01:43:58;35.53;;;13.85;;
21987;SDS011;11158;53.404;-1.510;2024-01-30T01:46:26;40.75;;;13.52;;
21987;SDS011;11158;53.404;-1.510;2024-01-30T01:48:52;35.60;;;13.73;;
21987;SDS011;11158;53.404;-1.510;2024-01-30T01:51:19;34.83;;;14.48;;
21987;SDS011;11158;53.404;-1.510;2024-01-30T01:53:46;33.67;;;13.50;;
21987;SDS011;11158;53.404;-1.510;2024-01-30T01:56:12;35.83;;;15.00;;
21987;SDS011;11158;53.404;-1.510;2024-01-30T01:58:37;37.72;;;14.70;;
21987;SDS011;11158;53.404;-1.510;2024-01-30T02:01:03;25.35;;;13.60;;
21987;SDS011;11158;53.404;-1.510;2024-01-30T02:03:30;28.55;;;13.63;;
21987;SDS011;11158;53.404;-1.510;2024-01-30T02:05:55;26.48;;;11.88;;
21987;SDS011;11158;53.404;-1.510;2024-01-30T02:08:21;28.23;;;12.63;;
21987;SDS011;11158;53.404;-1.510;2024-01-30T02:10:48;32.45;;;12.02;;
21987;SDS011;11158;53.404;-1.510;2024-01-30T02:13:13;28.13;;;12.90;;
21987;SDS011;11158;53.404;-1.510;2024-01-30T02:15:39;32.38;;;12.52;;
21987;SDS011;11158;53.404;-1.510;2024-01-30T02:18:04;26.65;;;11.27;;
21987;SDS011;11158;53.404;-1.510;2024-01-30T02:20:30;24.67;;;9.45;;
21987;SDS011;11158;53.404;-1.510;2024-01-30T02:22:56;12.43;;;6.38;;
21987;SDS011;11158;53.404;-1.510;2024-01-30T02:25:33;13.82;;;4.60;;
21987;SDS011;11158;53.404;-1.510;2024-01-30T02:28:00;7.15;;;4.35;;
21987;SDS011;11158;53.404;-1.510;2024-01-30T02:30:25;4.30;;;2.92;;
21987;SDS011;11158;53.404;-1.510;2024-01-30T02:32:52;4.00;;;2.70;;
21987;SDS011;11158;53.404;-1.510;2024-01-30T02:35:18;2.95;;;1.70;;
21987;SDS011;11158;53.404;-1.510;2024-01-30T02:37:43;1.45;;;1.13;;
21987;SDS011;11158;53.404;-1.510;2024-01-30T02:40:09;1.30;;;0.80;;
21987;SDS011;11158;53.404;-1.510;2024-01-30T02:42:36;1.15;;;0.65;;
21987;SDS011;11158;53.404;-1.510;2024-01-30T02:45:01;2.17;;;1.00;;
21987;SDS011;11158;53.404;-1.510;2024-01-30T02:47:26;1.58;;;1.20;;
21987;SDS011;11158;53.404;-1.510;2024-01-30T02:49:52;1.20;;;1.08;;
21987;SDS011;11158;53.404;-1.510;2024-01-30T02:52:17;1.60;;;1.38;;
21987;SDS011;11158;53.404;-1.510;2024-01-30T02:54:44;1.40;;;1.30;;
21987;SDS011;11158;53.404;-1.510;2024-01-30T02:57:09;1.35;;;1.17;;
21987;SDS011;11158;53.404;-1.510;2024-01-30T02:59:35;1.50;;;1.40;;
21987;SDS011;11158;53.404;-1.510;2024-01-30T03:02:03;1.30;;;1.13;;
21987;SDS011;11158;53.404;-1.510;2024-01-30T03:04:42;1.33;;;1.08;;
21987;SDS011;11158;53.404;-1.510;2024-01-30T03:07:08;1.10;;;1.00;;
21987;SDS011;11158;53.404;-1.510;2024-01-30T03:09:34;3.15;;;1.20;;
21987;SDS011;11158;53.404;-1.510;2024-01-30T03:11:59;0.95;;;0.90;;
21987;SDS011;11158;53.404;-1.510;2024-01-30T03:14:24;0.80;;;0.80;;
21987;SDS011;11158;53.404;-1.510;2024-01-30T03:16:50;1.00;;;0.88;;
21987;SDS011;11158;53.404;-1.510;2024-01-30T03:19:16;1.00;;;0.90;;
21987;SDS011;11158;53.404;-1.510;2024-01-30T03:21:42;0.80;;;0.80;;
21987;SDS011;11158;53.404;-1.510;2024-01-30T03:24:07;0.40;;;0.40;;
21987;SDS011;11158;53.404;-1.510;2024-01-30T03:26:32;0.25;;;0.25;;
21987;SDS011;11158;53.404;-1.510;2024-01-30T03:28:58;0.13;;;0.10;;
21987;SDS011;11158;53.404;-1.510;2024-01-30T03:31:23;0.10;;;0.10;;
21987;SDS011;11158;53.404;-1.510;2024-01-30T03:33:48;0.20;;;0.10;;
21987;SDS011;11158;53.404;-1.510;2024-01-30T03:36:15;0.57;;;0.20;;
21987;SDS011;11158;53.404;-1.510;2024-01-30T03:38:40;0.57;;;0.28;;
21987;SDS011;11158;53.404;-1.510;2024-01-30T03:41:09;0.20;;;0.20;;
21987;SDS011;11158;53.404;-1.510;2024-01-30T03:43:35;0.98;;;0.10;;
21987;SDS011;11158;53.404;-1.510;2024-01-30T03:46:01;0.20;;;0.10;;
21987;SDS011;11158;53.404;-1.510;2024-01-30T03:48:27;0.10;;;0.10;;
21987;SDS011;11158;53.404;-1.510;2024-01-30T03:50:53;0.63;;;0.13;;
21987;SDS011;11158;53.404;-1.510;2024-01-30T03:53:18;0.10;;;0.10;;
21987;SDS011;11158;53.404;-1.510;2024-01-30T03:55:44;0.10;;;0.10;;
21987;SDS011;11158;53.404;-1.510;2024-01-30T03:58:09;0.10;;;0.10;;
21987;SDS011;11158;53.404;-1.510;2024-01-30T04:00:35;0.00;;;0.00;;
21987;SDS011;11158;53.404;-1.510;2024-01-30T04:03:00;0.00;;;0.00;;
21987;SDS011;11158;53.404;-1.510;2024-01-30T04:05:26;0.30;;;0.30;;
21987;SDS011;11158;53.404;-1.510;2024-01-30T04:07:51;0.20;;;0.10;;
21987;SDS011;11158;53.404;-1.510;2024-01-30T04:10:16;0.10;;;0.10;;
21987;SDS011;11158;53.404;-1.510;2024-01-30T04:12:42;0.68;;;0.20;;
21987;SDS011;11158;53.404;-1.510;2024-01-30T04:15:07;0.20;;;0.20;;
21987;SDS011;11158;53.404;-1.510;2024-01-30T04:17:33;0.20;;;0.20;;
21987;SDS011;11158;53.404;-1.510;2024-01-30T04:19:58;0.20;;;0.20;;
21987;SDS011;11158;53.404;-1.510;2024-01-30T04:22:24;0.30;;;0.30;;
21987;SDS011;11158;53.404;-1.510;2024-01-30T04:24:49;0.50;;;0.50;;
21987;SDS011;11158;53.404;-1.510;2024-01-30T04:27:15;0.43;;;0.43;;
21987;SDS011;11158;53.404;-1.510;2024-01-30T04:29:40;0.50;;;0.45;;
21987;SDS011;11158;53.404;-1.510;2024-01-30T04:32:06;0.85;;;0.75;;
21987;SDS011;11158;53.404;-1.510;2024-01-30T04:34:31;1.33;;;0.82;;
21987;SDS011;11158;53.404;-1.510;2024-01-30T04:36:56;1.08;;;0.82;;
21987;SDS011;11158;53.404;-1.510;2024-01-30T04:39:22;0.98;;;0.70;;
21987;SDS011;11158;53.404;-1.510;2024-01-30T04:41:47;2.30;;;1.02;;
21987;SDS011;11158;53.404;-1.510;2024-01-30T04:44:13;1.45;;;1.10;;
21987;SDS011;11158;53.404;-1.510;2024-01-30T04:46:39;2.03;;;1.20;;
21987;SDS011;11158;53.404;-1.510;2024-01-30T04:49:04;1.30;;;1.20;;
21987;SDS011;11158;53.404;-1.510;2024-01-30T04:51:30;0.95;;;0.85;;
21987;SDS011;11158;53.404;-1.510;2024-01-30T04:53:55;1.35;;;1.10;;
21987;SDS011;11158;53.404;-1.510;2024-01-30T04:56:21;1.38;;;1.17;;
21987;SDS011;11158;53.404;-1.510;2024-01-30T04:58:46;1.30;;;1.20;;
21987;SDS011;11158;53.404;-1.510;2024-01-30T05:01:15;2.47;;;1.25;;
21987;SDS011;11158;53.404;-1.510;2024-01-30T05:03:42;1.85;;;1.33;;
21987;SDS011;11158;53.404;-1.510;2024-01-30T05:06:07;1.08;;;0.90;;
21987;SDS011;11158;53.404;-1.510;2024-01-30T05:08:33;1.80;;;1.02;;
21987;SDS011;11158;53.404;-1.510;2024-01-30T05:11:01;1.20;;;0.90;;
21987;SDS011;11158;53.404;-1.510;2024-01-30T05:13:29;1.15;;;0.88;;
21987;SDS011;11158;53.404;-1.510;2024-01-30T05:15:57;1.15;;;0.57;;
21987;SDS011;11158;53.404;-1.510;2024-01-30T05:18:23;1.33;;;0.73;;
21987;SDS011;11158;53.404;-1.510;2024-01-30T05:20:51;0.60;;;0.60;;
21987;SDS011;11158;53.404;-1.510;2024-01-30T05:23:17;2.67;;;0.80;;
21987;SDS011;11158;53.404;-1.510;2024-01-30T05:25:42;0.93;;;0.80;;
21987;SDS011;11158;53.404;-1.510;2024-01-30T05:28:07;1.45;;;0.90;;
21987;SDS011;11158;53.404;-1.510;2024-01-30T05:30:33;1.45;;;0.82;;
21987;SDS011;11158;53.404;-1.510;2024-01-30T05:32:58;2.78;;;1.10;;
21987;SDS011;11158;53.404;-1.510;2024-01-30T05:35:24;1.85;;;0.95;;
21987;SDS011;11158;53.404;-1.510;2024-01-30T05:37:51;1.67;;;1.10;;
21987;SDS011;11158;53.404;-1.510;2024-01-30T05:40:16;1.00;;;0.90;;
21987;SDS011;11158;53.404;-1.510;2024-01-30T05:42:42;2.45;;;1.23;;
21987;SDS011;11158;53.404;-1.510;2024-01-30T05:45:07;1.40;;;1.17;;
21987;SDS011;11158;53.404;-1.510;2024-01-30T05:47:34;1.83;;;1.05;;
21987;SDS011;11158;53.404;-1.510;2024-01-30T05:49:59;1.67;;;1.27;;
21987;SDS011;11158;53.404;-1.510;2024-01-30T05:52:25;4.43;;;1.50;;
21987;SDS011;11158;53.404;-1.510;2024-01-30T05:54:50;1.63;;;0.93;;
21987;SDS011;11158;53.404;-1.510;2024-01-30T05:57:16;2.25;;;1.30;;
21987;SDS011;11158;53.404;-1.510;2024-01-30T05:59:42;1.02;;;0.80;;
21987;SDS011;11158;53.404;-1.510;2024-01-30T06:02:10;1.10;;;0.60;;
21987;SDS011;11158;53.404;-1.510;2024-01-30T06:04:38;1.65;;;0.40;;
21987;SDS011;11158;53.404;-1.510;2024-01-30T06:07:03;0.20;;;0.20;;
21987;SDS011;11158;53.404;-1.510;2024-01-30T06:09:31;0.30;;;0.28;;
21987;SDS011;11158;53.404;-1.510;2024-01-30T06:11:57;0.32;;;0.32;;
21987;SDS011;11158;53.404;-1.510;2024-01-30T06:14:22;0.15;;;0.10;;
21987;SDS011;11158;53.404;-1.510;2024-01-30T06:19:14;0.40;;;0.40;;
21987;SDS011;11158;53.404;-1.510;2024-01-30T06:21:39;0.45;;;0.30;;
21987;SDS011;11158;53.404;-1.510;2024-01-30T06:24:05;0.30;;;0.30;;
21987;SDS011;11158;53.404;-1.510;2024-01-30T06:26:30;0.40;;;0.40;;
21987;SDS011;11158;53.404;-1.510;2024-01-30T06:28:56;0.95;;;0.40;;
21987;SDS011;11158;53.404;-1.510;2024-01-30T06:31:21;0.20;;;0.20;;
21987;SDS011;11158;53.404;-1.510;2024-01-30T06:33:47;1.35;;;0.98;;
21987;SDS011;11158;53.404;-1.510;2024-01-30T06:38:38;0.30;;;0.30;;
21987;SDS011;11158;53.404;-1.510;2024-01-30T06:41:03;0.10;;;0.10;;
21987;SDS011;11158;53.404;-1.510;2024-01-30T06:43:29;0.20;;;0.20;;
21987;SDS011;11158;53.404;-1.510;2024-01-30T06:48:19;0.20;;;0.20;;
21987;SDS011;11158;53.404;-1.510;2024-01-30T06:50:45;0.57;;;0.38;;
21987;SDS011;11158;53.404;-1.510;2024-01-30T06:53:11;0.10;;;0.10;;
21987;SDS011;11158;53.404;-1.510;2024-01-30T06:58:01;31.90;;;1.60;;
21987;SDS011;11158;53.404;-1.510;2024-01-30T07:00:27;0.20;;;0.20;;
21987;SDS011;11158;53.404;-1.510;2024-01-30T07:05:18;0.13;;;0.13;;
21987;SDS011;11158;53.404;-1.510;2024-01-30T07:07:43;0.20;;;0.20;;
21987;SDS011;11158;53.404;-1.510;2024-01-30T07:10:09;0.20;;;0.20;;
21987;SDS011;11158;53.404;-1.510;2024-01-30T07:12:34;0.17;;;0.17;;
21987;SDS011;11158;53.404;-1.510;2024-01-30T07:14:59;0.32;;;0.32;;
21987;SDS011;11158;53.404;-1.510;2024-01-30T07:17:26;0.30;;;0.30;;
21987;SDS011;11158;53.404;-1.510;2024-01-30T07:19:51;0.20;;;0.20;;
21987;SDS011;11158;53.404;-1.510;2024-01-30T07:22:16;0.38;;;0.38;;
21987;SDS011;11158;53.404;-1.510;2024-01-30T07:27:10;0.40;;;0.40;;
21987;SDS011;11158;53.404;-1.510;2024-01-30T07:29:36;0.25;;;0.25;;
21987;SDS011;11158;53.404;-1.510;2024-01-30T07:32:02;0.30;;;0.30;;
21987;SDS011;11158;53.404;-1.510;2024-01-30T07:34:27;0.57;;;0.30;;
21987;SDS011;11158;53.404;-1.510;2024-01-30T07:36:52;0.20;;;0.20;;
21987;SDS011;11158;53.404;-1.510;2024-01-30T07:39:18;1.23;;;0.20;;
21987;SDS011;11158;53.404;-1.510;2024-01-30T07:41:43;0.28;;;0.28;;
21987;SDS011;11158;53.404;-1.510;2024-01-30T07:44:09;0.30;;;0.30;;
21987;SDS011;11158;53.404;-1.510;2024-01-30T07:48:59;0.20;;;0.20;;
21987;SDS011;11158;53.404;-1.510;2024-01-30T07:53:50;0.50;;;0.47;;
21987;SDS011;11158;53.404;-1.510;2024-01-30T07:56:16;0.30;;;0.30;;
21987;SDS011;11158;53.404;-1.510;2024-01-30T08:01:06;0.30;;;0.20;;
21987;SDS011;11158;53.404;-1.510;2024-01-30T08:03:32;0.60;;;0.30;;
21987;SDS011;11158;53.404;-1.510;2024-01-30T08:05:58;0.22;;;0.22;;
21987;SDS011;11158;53.404;-1.510;2024-01-30T08:08:24;0.85;;;0.30;;
21987;SDS011;11158;53.404;-1.510;2024-01-30T08:10:50;0.20;;;0.20;;
21987;SDS011;11158;53.404;-1.510;2024-01-30T08:13:16;0.10;;;0.10;;
21987;SDS011;11158;53.404;-1.510;2024-01-30T08:18:07;0.30;;;0.30;;
21987;SDS011;11158;53.404;-1.510;2024-01-30T08:20:32;0.68;;;0.30;;
21987;SDS011;11158;53.404;-1.510;2024-01-30T08:22:58;1.10;;;0.20;;
21987;SDS011;11158;53.404;-1.510;2024-01-30T08:25:25;0.30;;;0.30;;
21987;SDS011;11158;53.404;-1.510;2024-01-30T08:27:50;0.60;;;0.43;;
21987;SDS011;11158;53.404;-1.510;2024-01-30T08:30:16;0.68;;;0.40;;
21987;SDS011;11158;53.404;-1.510;2024-01-30T08:35:07;0.70;;;0.63;;
21987;SDS011;11158;53.404;-1.510;2024-01-30T08:37:33;0.52;;;0.50;;
21987;SDS011;11158;53.404;-1.510;2024-01-30T08:39:58;0.47;;;0.47;;
21987;SDS011;11158;53.404;-1.510;2024-01-30T08:44:50;0.20;;;0.20;;
21987;SDS011;11158;53.404;-1.510;2024-01-30T08:47:17;0.47;;;0.40;;
21987;SDS011;11158;53.404;-1.510;2024-01-30T08:49:43;0.32;;;0.32;;
21987;SDS011;11158;53.404;-1.510;2024-01-30T08:52:09;0.40;;;0.40;;
21987;SDS011;11158;53.404;-1.510;2024-01-30T08:54:35;0.35;;;0.30;;
21987;SDS011;11158;53.404;-1.510;2024-01-30T08:57:01;0.38;;;0.38;;
21987;SDS011;11158;53.404;-1.510;2024-01-30T08:59:27;0.52;;;0.22;;
21987;SDS011;11158;53.404;-1.510;2024-01-30T09:01:52;0.20;;;0.20;;
21987;SDS011;11158;53.404;-1.510;2024-01-30T09:04:20;0.10;;;0.10;;
21987;SDS011;11158;53.404;-1.510;2024-01-30T09:06:47;1.17;;;0.00;;
21987;SDS011;11158;53.404;-1.510;2024-01-30T09:09:13;0.73;;;0.10;;
21987;SDS011;11158;53.404;-1.510;2024-01-30T09:11:39;0.20;;;0.20;;
21987;SDS011;11158;53.404;-1.510;2024-01-30T09:14:05;0.30;;;0.20;;
21987;SDS011;11158;53.404;-1.510;2024-01-30T09:16:30;0.10;;;0.10;;
21987;SDS011;11158;53.404;-1.510;2024-01-30T09:21:21;0.80;;;0.30;;
21987;SDS011;11158;53.404;-1.510;2024-01-30T09:26:12;0.93;;;0.30;;
21987;SDS011;11158;53.404;-1.510;2024-01-30T09:28:37;0.30;;;0.30;;
21987;SDS011;11158;53.404;-1.510;2024-01-30T09:31:03;0.30;;;0.30;;
21987;SDS011;11158;53.404;-1.510;2024-01-30T09:33:29;0.52;;;0.38;;
21987;SDS011;11158;53.404;-1.510;2024-01-30T09:35:54;0.68;;;0.20;;
21987;SDS011;11158;53.404;-1.510;2024-01-30T09:38:20;1.27;;;0.20;;
21987;SDS011;11158;53.404;-1.510;2024-01-30T09:40:46;0.57;;;0.20;;
21987;SDS011;11158;53.404;-1.510;2024-01-30T09:43:18;0.17;;;0.15;;
21987;SDS011;11158;53.404;-1.510;2024-01-30T09:45:48;0.20;;;0.20;;
21987;SDS011;11158;53.404;-1.510;2024-01-30T09:48:15;0.68;;;0.28;;
21987;SDS011;11158;53.404;-1.510;2024-01-30T09:53:07;0.10;;;0.10;;
21987;SDS011;11158;53.404;-1.510;2024-01-30T09:55:34;0.10;;;0.10;;
21987;SDS011;11158;53.404;-1.510;2024-01-30T09:58:01;0.20;;;0.13;;
21987;SDS011;11158;53.404;-1.510;2024-01-30T10:00:26;0.32;;;0.15;;
21987;SDS011;11158;53.404;-1.510;2024-01-30T10:02:52;0.60;;;0.20;;
21987;SDS011;11158;53.404;-1.510;2024-01-30T10:05:18;0.20;;;0.20;;
21987;SDS011;11158;53.404;-1.510;2024-01-30T10:07:54;0.85;;;0.40;;
21987;SDS011;11158;53.404;-1.510;2024-01-30T10:10:23;0.73;;;0.10;;
21987;SDS011;11158;53.404;-1.510;2024-01-30T10:12:49;0.20;;;0.20;;
21987;SDS011;11158;53.404;-1.510;2024-01-30T10:15:14;0.30;;;0.20;;
21987;SDS011;11158;53.404;-1.510;2024-01-30T10:17:40;0.20;;;0.20;;
21987;SDS011;11158;53.404;-1.510;2024-01-30T10:20:06;0.40;;;0.22;;
21987;SDS011;11158;53.404;-1.510;2024-01-30T10:22:32;0.57;;;0.20;;
21987;SDS011;11158;53.404;-1.510;2024-01-30T10:24:58;0.65;;;0.25;;
21987;SDS011;11158;53.404;-1.510;2024-01-30T10:27:28;0.28;;;0.28;;
21987;SDS011;11158;53.404;-1.510;2024-01-30T10:29:54;0.28;;;0.28;;
21987;SDS011;11158;53.404;-1.510;2024-01-30T10:32:20;0.30;;;0.28;;
21987;SDS011;11158;53.404;-1.510;2024-01-30T10:34:46;0.65;;;0.40;;
21987;SDS011;11158;53.404;-1.510;2024-01-30T10:37:12;0.30;;;0.30;;
21987;SDS011;11158;53.404;-1.510;2024-01-30T10:39:40;0.30;;;0.30;;
21987;SDS011;11158;53.404;-1.510;2024-01-30T10:42:14;0.20;;;0.20;;
21987;SDS011;11158;53.404;-1.510;2024-01-30T10:47:31;0.30;;;0.30;;
21987;SDS011;11158;53.404;-1.510;2024-01-30T10:49:59;0.38;;;0.32;;
21987;SDS011;11158;53.404;-1.510;2024-01-30T10:52:26;0.20;;;0.20;;
21987;SDS011;11158;53.404;-1.510;2024-01-30T10:54:55;1.00;;;0.52;;
21987;SDS011;11158;53.404;-1.510;2024-01-30T10:57:22;0.50;;;0.38;;
21987;SDS011;11158;53.404;-1.510;2024-01-30T10:59:49;0.98;;;0.35;;
21987;SDS011;11158;53.404;-1.510;2024-01-30T11:02:18;0.38;;;0.20;;
21987;SDS011;11158;53.404;-1.510;2024-01-30T11:04:44;0.30;;;0.22;;
21987;SDS011;11158;53.404;-1.510;2024-01-30T11:07:14;0.22;;;0.22;;
21987;SDS011;11158;53.404;-1.510;2024-01-30T11:12:16;0.45;;;0.22;;
21987;SDS011;11158;53.404;-1.510;2024-01-30T11:14:41;0.35;;;0.35;;
21987;SDS011;11158;53.404;-1.510;2024-01-30T11:17:08;0.50;;;0.40;;
21987;SDS011;11158;53.404;-1.510;2024-01-30T11:19:35;3.10;;;0.40;;
21987;SDS011;11158;53.404;-1.510;2024-01-30T11:22:00;0.22;;;0.20;;
21987;SDS011;11158;53.404;-1.510;2024-01-30T11:24:26;0.75;;;0.10;;
21987;SDS011;11158;53.404;-1.510;2024-01-30T11:26:58;0.40;;;0.30;;
21987;SDS011;11158;53.404;-1.510;2024-01-30T11:29:27;0.43;;;0.40;;
21987;SDS011;11158;53.404;-1.510;2024-01-30T11:31:57;1.08;;;0.30;;
21987;SDS011;11158;53.404;-1.510;2024-01-30T11:34:23;0.20;;;0.20;;
21987;SDS011;11158;53.404;-1.510;2024-01-30T11:36:53;0.20;;;0.20;;
21987;SDS011;11158;53.404;-1.510;2024-01-30T11:39:24;0.20;;;0.20;;
21987;SDS011;11158;53.404;-1.510;2024-01-30T11:41:51;0.38;;;0.20;;
21987;SDS011;11158;53.404;-1.510;2024-01-30T11:44:18;0.52;;;0.20;;
21987;SDS011;11158;53.404;-1.510;2024-01-30T11:46:45;0.38;;;0.20;;
21987;SDS011;11158;53.404;-1.510;2024-01-30T11:49:14;0.80;;;0.45;;
21987;SDS011;11158;53.404;-1.510;2024-01-30T11:51:41;1.25;;;0.50;;
21987;SDS011;11158;53.404;-1.510;2024-01-30T11:54:07;0.90;;;0.50;;
21987;SDS011;11158;53.404;-1.510;2024-01-30T11:56:33;0.47;;;0.40;;
21987;SDS011;11158;53.404;-1.510;2024-01-30T11:58:58;0.63;;;0.20;;
21987;SDS011;11158;53.404;-1.510;2024-01-30T12:01:25;0.50;;;0.32;;
21987;SDS011;11158;53.404;-1.510;2024-01-30T12:03:51;0.60;;;0.30;;
21987;SDS011;11158;53.404;-1.510;2024-01-30T12:06:17;0.17;;;0.17;;
21987;SDS011;11158;53.404;-1.510;2024-01-30T12:08:42;0.10;;;0.10;;
21987;SDS011;11158;53.404;-1.510;2024-01-30T12:11:08;0.57;;;0.30;;
21987;SDS011;11158;53.404;-1.510;2024-01-30T12:13:33;0.32;;;0.30;;
21987;SDS011;11158;53.404;-1.510;2024-01-30T12:16:02;0.47;;;0.40;;
21987;SDS011;11158;53.404;-1.510;2024-01-30T12:18:28;0.30;;;0.20;;
21987;SDS011;11158;53.404;-1.510;2024-01-30T12:20:57;0.85;;;0.22;;
21987;SDS011;11158;53.404;-1.510;2024-01-30T12:25:54;0.50;;;0.22;;
21987;SDS011;11158;53.404;-1.510;2024-01-30T12:28:20;0.30;;;0.30;;
21987;SDS011;11158;53.404;-1.510;2024-01-30T12:30:46;0.45;;;0.38;;
21987;SDS011;11158;53.404;-1.510;2024-01-30T12:33:17;0.40;;;0.22;;
21987;SDS011;11158;53.404;-1.510;2024-01-30T12:35:46;0.20;;;0.20;;
21987;SDS011;11158;53.404;-1.510;2024-01-30T12:38:15;0.20;;;0.17;;
21987;SDS011;11158;53.404;-1.510;2024-01-30T12:40:41;0.30;;;0.20;;
21987;SDS011;11158;53.404;-1.510;2024-01-30T12:43:06;0.22;;;0.20;;
21987;SDS011;11158;53.404;-1.510;2024-01-30T12:45:32;0.20;;;0.13;;
21987;SDS011;11158;53.404;-1.510;2024-01-30T12:47:57;0.20;;;0.20;;
21987;SDS011;11158;53.404;-1.510;2024-01-30T12:52:49;0.15;;;0.10;;
21987;SDS011;11158;53.404;-1.510;2024-01-30T12:55:14;0.20;;;0.20;;
21987;SDS011;11158;53.404;-1.510;2024-01-30T12:57:40;0.30;;;0.20;;
21987;SDS011;11158;53.404;-1.510;2024-01-30T13:00:05;1.17;;;0.10;;
21987;SDS011;11158;53.404;-1.510;2024-01-30T13:02:33;0.55;;;0.20;;
21987;SDS011;11158;53.404;-1.510;2024-01-30T13:05:02;0.10;;;0.10;;
21987;SDS011;11158;53.404;-1.510;2024-01-30T13:07:30;0.15;;;0.15;;
21987;SDS011;11158;53.404;-1.510;2024-01-30T13:09:56;0.10;;;0.10;;
21987;SDS011;11158;53.404;-1.510;2024-01-30T13:12:27;0.20;;;0.20;;
21987;SDS011;11158;53.404;-1.510;2024-01-30T13:14:53;0.20;;;0.20;;
21987;SDS011;11158;53.404;-1.510;2024-01-30T13:17:19;0.40;;;0.10;;
21987;SDS011;11158;53.404;-1.510;2024-01-30T13:19:44;0.17;;;0.10;;
21987;SDS011;11158;53.404;-1.510;2024-01-30T13:22:10;0.40;;;0.20;;
21987;SDS011;11158;53.404;-1.510;2024-01-30T13:24:35;0.10;;;0.10;;
21987;SDS011;11158;53.404;-1.510;2024-01-30T13:27:00;0.30;;;0.20;;
21987;SDS011;11158;53.404;-1.510;2024-01-30T13:29:26;0.20;;;0.20;;
21987;SDS011;11158;53.404;-1.510;2024-01-30T13:31:51;0.52;;;0.35;;
21987;SDS011;11158;53.404;-1.510;2024-01-30T13:34:17;0.20;;;0.10;;
21987;SDS011;11158;53.404;-1.510;2024-01-30T13:36:42;3.42;;;0.38;;
21987;SDS011;11158;53.404;-1.510;2024-01-30T13:39:08;0.90;;;0.10;;
21987;SDS011;11158;53.404;-1.510;2024-01-30T13:41:36;0.10;;;0.10;;
21987;SDS011;11158;53.404;-1.510;2024-01-30T13:44:02;0.30;;;0.10;;
21987;SDS011;11158;53.404;-1.510;2024-01-30T13:46:28;0.10;;;0.10;;
21987;SDS011;11158;53.404;-1.510;2024-01-30T13:48:54;1.65;;;0.20;;
21987;SDS011;11158;53.404;-1.510;2024-01-30T13:51:20;0.10;;;0.10;;
21987;SDS011;11158;53.404;-1.510;2024-01-30T13:53:45;0.35;;;0.20;;
21987;SDS011;11158;53.404;-1.510;2024-01-30T13:56:11;0.38;;;0.20;;
21987;SDS011;11158;53.404;-1.510;2024-01-30T13:58:36;0.38;;;0.20;;
21987;SDS011;11158;53.404;-1.510;2024-01-30T14:01:02;0.30;;;0.20;;
21987;SDS011;11158;53.404;-1.510;2024-01-30T14:03:27;1.73;;;0.30;;
21987;SDS011;11158;53.404;-1.510;2024-01-30T14:05:53;1.27;;;0.32;;
21987;SDS011;11158;53.404;-1.510;2024-01-30T14:08:19;0.45;;;0.28;;
21987;SDS011;11158;53.404;-1.510;2024-01-30T14:10:46;1.88;;;0.32;;
21987;SDS011;11158;53.404;-1.510;2024-01-30T14:13:12;0.60;;;0.20;;
21987;SDS011;11158;53.404;-1.510;2024-01-30T14:15:38;0.98;;;0.20;;
21987;SDS011;11158;53.404;-1.510;2024-01-30T14:18:03;0.10;;;0.10;;
21987;SDS011;11158;53.404;-1.510;2024-01-30T14:20:30;0.30;;;0.25;;
21987;SDS011;11158;53.404;-1.510;2024-01-30T14:22:56;1.38;;;0.28;;
21987;SDS011;11158;53.404;-1.510;2024-01-30T14:25:21;1.50;;;0.30;;
21987;SDS011;11158;53.404;-1.510;2024-01-30T14:27:47;0.57;;;0.40;;
21987;SDS011;11158;53.404;-1.510;2024-01-30T14:30:12;1.23;;;0.30;;
21987;SDS011;11158;53.404;-1.510;2024-01-30T14:32:38;2.13;;;0.30;;
21987;SDS011;11158;53.404;-1.510;2024-01-30T14:35:05;1.65;;;0.22;;
21987;SDS011;11158;53.404;-1.510;2024-01-30T14:37:31;2.42;;;0.40;;
21987;SDS011;11158;53.404;-1.510;2024-01-30T14:39:56;1.95;;;0.50;;
21987;SDS011;11158;53.404;-1.510;2024-01-30T14:42:21;0.93;;;0.20;;
21987;SDS011;11158;53.404;-1.510;2024-01-30T14:44:47;0.70;;;0.30;;
21987;SDS011;11158;53.404;-1.510;2024-01-30T14:47:14;0.60;;;0.40;;
21987;SDS011;11158;53.404;-1.510;2024-01-30T14:49:39;0.52;;;0.20;;
21987;SDS011;11158;53.404;-1.510;2024-01-30T14:52:05;0.35;;;0.20;;
21987;SDS011;11158;53.404;-1.510;2024-01-30T14:54:30;2.10;;;0.55;;
21987;SDS011;11158;53.404;-1.510;2024-01-30T14:56:55;2.78;;;0.50;;
21987;SDS011;11158;53.404;-1.510;2024-01-30T14:59:22;1.20;;;0.90;;
21987;SDS011;11158;53.404;-1.510;2024-01-30T15:01:47;4.25;;;0.47;;
21987;SDS011;11158;53.404;-1.510;2024-01-30T15:04:13;3.05;;;0.40;;
21987;SDS011;11158;53.404;-1.510;2024-01-30T15:06:39;1.08;;;0.30;;
21987;SDS011;11158;53.404;-1.510;2024-01-30T15:09:10;4.90;;;0.50;;
21987;SDS011;11158;53.404;-1.510;2024-01-30T15:11:43;2.75;;;0.52;;